sensor_id;sensor_type;location;lat;lon;timestamp;temperature;humidity
12043;DHT22;6082;49.306;12.862;2023-08-07T00:00:50;12.90;99.90
12043;DHT22;6082;49.306;12.862;2023-08-07T00:03:16;12.90;99.90
12043;DHT22;6082;49.306;12.862;2023-08-07T00:05:50;12.80;99.90
12043;DHT22;6082;49.306;12.862;2023-08-07T00:08:17;12.80;99.90
12043;DHT22;6082;49.306;12.862;2023-08-07T00:10:43;12.70;99.90
12043;DHT22;6082;49.306;12.862;2023-08-07T00:13:09;12.70;99.90
12043;DHT22;6082;49.306;12.862;2023-08-07T00:15:37;12.70;99.90
12043;DHT22;6082;49.306;12.862;2023-08-07T00:18:04;12.70;99.90
12043;DHT22;6082;49.306;12.862;2023-08-07T00:20:29;12.70;99.90
12043;DHT22;6082;49.306;12.862;2023-08-07T00:22:55;12.70;99.90
12043;DHT22;6082;49.306;12.862;2023-08-07T00:25:21;12.70;99.90
12043;DHT22;6082;49.306;12.862;2023-08-07T00:27:46;12.70;99.90
12043;DHT22;6082;49.306;12.862;2023-08-07T00:30:12;12.60;99.90
12043;DHT22;6082;49.306;12.862;2023-08-07T00:32:38;12.60;99.90
12043;DHT22;6082;49.306;12.862;2023-08-07T00:35:05;12.70;99.90
12043;DHT22;6082;49.306;12.862;2023-08-07T00:37:31;12.60;99.90
12043;DHT22;6082;49.306;12.862;2023-08-07T00:39:56;12.60;99.90
12043;DHT22;6082;49.306;12.862;2023-08-07T00:42:22;12.60;99.90
12043;DHT22;6082;49.306;12.862;2023-08-07T00:44:48;12.60;99.90
12043;DHT22;6082;49.306;12.862;2023-08-07T00:47:17;12.60;99.90
12043;DHT22;6082;49.306;12.862;2023-08-07T00:49:43;12.60;99.90
12043;DHT22;6082;49.306;12.862;2023-08-07T00:52:10;12.60;99.90
12043;DHT22;6082;49.306;12.862;2023-08-07T00:54:37;12.60;99.90
12043;DHT22;6082;49.306;12.862;2023-08-07T00:57:12;12.60;99.90
12043;DHT22;6082;49.306;12.862;2023-08-07T00:59:40;12.60;99.90
12043;DHT22;6082;49.306;12.862;2023-08-07T01:02:07;12.60;99.90
12043;DHT22;6082;49.306;12.862;2023-08-07T01:04:33;12.60;99.90
12043;DHT22;6082;49.306;12.862;2023-08-07T01:06:58;12.50;99.90
12043;DHT22;6082;49.306;12.862;2023-08-07T01:09:24;12.50;99.90
12043;DHT22;6082;49.306;12.862;2023-08-07T01:12:41;12.60;99.90
12043;DHT22;6082;49.306;12.862;2023-08-07T01:15:08;12.60;99.90
12043;DHT22;6082;49.306;12.862;2023-08-07T01:17:37;12.60;99.90
12043;DHT22;6082;49.306;12.862;2023-08-07T01:20:04;12.50;99.90
12043;DHT22;6082;49.306;12.862;2023-08-07T01:22:30;12.50;99.90
12043;DHT22;6082;49.306;12.862;2023-08-07T01:24:56;12.50;99.90
12043;DHT22;6082;49.306;12.862;2023-08-07T01:27:42;12.50;99.90
12043;DHT22;6082;49.306;12.862;2023-08-07T01:35:41;12.40;99.90
12043;DHT22;6082;49.306;12.862;2023-08-07T01:38:08;12.40;99.90
12043;DHT22;6082;49.306;12.862;2023-08-07T01:40:37;12.40;99.90
12043;DHT22;6082;49.306;12.862;2023-08-07T01:43:04;12.40;99.90
12043;DHT22;6082;49.306;12.862;2023-08-07T01:45:30;12.40;99.90
12043;DHT22;6082;49.306;12.862;2023-08-07T01:47:56;12.40;99.90
12043;DHT22;6082;49.306;12.862;2023-08-07T01:50:23;12.40;99.90
12043;DHT22;6082;49.306;12.862;2023-08-07T01:52:49;12.40;99.90
12043;DHT22;6082;49.306;12.862;2023-08-07T01:55:19;12.40;99.90
12043;DHT22;6082;49.306;12.862;2023-08-07T01:57:45;12.40;99.90
12043;DHT22;6082;49.306;12.862;2023-08-07T02:00:11;12.40;99.90
12043;DHT22;6082;49.306;12.862;2023-08-07T02:02:37;12.40;99.90
12043;DHT22;6082;49.306;12.862;2023-08-07T02:05:03;12.40;99.90
12043;DHT22;6082;49.306;12.862;2023-08-07T02:07:30;12.40;99.90
12043;DHT22;6082;49.306;12.862;2023-08-07T02:09:56;12.30;99.90
12043;DHT22;6082;49.306;12.862;2023-08-07T02:12:22;12.40;99.90
12043;DHT22;6082;49.306;12.862;2023-08-07T02:14:48;12.40;99.90
12043;DHT22;6082;49.306;12.862;2023-08-07T02:17:13;12.40;99.90
12043;DHT22;6082;49.306;12.862;2023-08-07T02:19:39;12.40;99.90
12043;DHT22;6082;49.306;12.862;2023-08-07T02:22:05;12.40;99.90
12043;DHT22;6082;49.306;12.862;2023-08-07T02:24:31;12.40;99.90
12043;DHT22;6082;49.306;12.862;2023-08-07T02:26:57;12.40;99.90
12043;DHT22;6082;49.306;12.862;2023-08-07T02:29:23;12.40;99.90
12043;DHT22;6082;49.306;12.862;2023-08-07T02:31:49;12.40;99.90
12043;DHT22;6082;49.306;12.862;2023-08-07T02:34:14;12.40;99.90
12043;DHT22;6082;49.306;12.862;2023-08-07T02:36:40;12.40;99.90
12043;DHT22;6082;49.306;12.862;2023-08-07T02:39:07;12.40;99.90
12043;DHT22;6082;49.306;12.862;2023-08-07T02:41:33;12.40;99.90
12043;DHT22;6082;49.306;12.862;2023-08-07T02:43:59;12.40;99.90
12043;DHT22;6082;49.306;12.862;2023-08-07T02:46:25;12.40;99.90
12043;DHT22;6082;49.306;12.862;2023-08-07T02:48:51;12.30;99.90
12043;DHT22;6082;49.306;12.862;2023-08-07T02:51:16;12.40;99.90
12043;DHT22;6082;49.306;12.862;2023-08-07T02:53:42;12.30;99.90
12043;DHT22;6082;49.306;12.862;2023-08-07T02:56:08;12.40;99.90
12043;DHT22;6082;49.306;12.862;2023-08-07T02:58:34;12.40;99.90
12043;DHT22;6082;49.306;12.862;2023-08-07T03:01:04;12.40;99.90
12043;DHT22;6082;49.306;12.862;2023-08-07T03:03:31;12.30;99.90
12043;DHT22;6082;49.306;12.862;2023-08-07T03:05:57;12.30;99.90
12043;DHT22;6082;49.306;12.862;2023-08-07T03:08:23;12.40;99.90
12043;DHT22;6082;49.306;12.862;2023-08-07T03:10:52;12.30;99.90
12043;DHT22;6082;49.306;12.862;2023-08-07T03:13:19;12.30;99.90
12043;DHT22;6082;49.306;12.862;2023-08-07T03:15:44;12.30;99.90
12043;DHT22;6082;49.306;12.862;2023-08-07T03:18:10;12.30;99.90
12043;DHT22;6082;49.306;12.862;2023-08-07T03:20:37;12.30;99.90
12043;DHT22;6082;49.306;12.862;2023-08-07T03:23:03;12.30;99.90
12043;DHT22;6082;49.306;12.862;2023-08-07T03:25:28;12.30;99.90
12043;DHT22;6082;49.306;12.862;2023-08-07T03:27:54;12.30;99.90
12043;DHT22;6082;49.306;12.862;2023-08-07T03:30:20;12.30;99.90
12043;DHT22;6082;49.306;12.862;2023-08-07T03:32:46;12.30;99.90
12043;DHT22;6082;49.306;12.862;2023-08-07T03:35:11;12.30;99.90
12043;DHT22;6082;49.306;12.862;2023-08-07T03:37:37;12.30;99.90
12043;DHT22;6082;49.306;12.862;2023-08-07T03:40:03;12.40;99.90
12043;DHT22;6082;49.306;12.862;2023-08-07T03:42:29;12.30;99.90
12043;DHT22;6082;49.306;12.862;2023-08-07T03:44:55;12.30;99.90
12043;DHT22;6082;49.306;12.862;2023-08-07T03:47:20;12.30;99.90
12043;DHT22;6082;49.306;12.862;2023-08-07T03:49:46;12.30;99.90
12043;DHT22;6082;49.306;12.862;2023-08-07T03:52:12;12.30;99.90
12043;DHT22;6082;49.306;12.862;2023-08-07T03:54:37;12.30;99.90
12043;DHT22;6082;49.306;12.862;2023-08-07T03:57:06;12.30;99.90
12043;DHT22;6082;49.306;12.862;2023-08-07T03:59:33;12.30;99.90
12043;DHT22;6082;49.306;12.862;2023-08-07T04:01:59;12.30;99.90
12043;DHT22;6082;49.306;12.862;2023-08-07T04:04:25;12.30;99.90
12043;DHT22;6082;49.306;12.862;2023-08-07T04:06:50;12.30;99.90
12043;DHT22;6082;49.306;12.862;2023-08-07T04:09:16;12.30;99.90
12043;DHT22;6082;49.306;12.862;2023-08-07T04:11:42;12.30;99.90
12043;DHT22;6082;49.306;12.862;2023-08-07T04:14:08;12.30;99.90
12043;DHT22;6082;49.306;12.862;2023-08-07T04:16:33;12.30;99.90
12043;DHT22;6082;49.306;12.862;2023-08-07T04:18:59;12.30;99.90
12043;DHT22;6082;49.306;12.862;2023-08-07T04:21:25;12.20;99.90
12043;DHT22;6082;49.306;12.862;2023-08-07T04:23:51;12.30;99.90
12043;DHT22;6082;49.306;12.862;2023-08-07T04:26:17;12.30;99.90
12043;DHT22;6082;49.306;12.862;2023-08-07T04:28:42;12.30;99.90
12043;DHT22;6082;49.306;12.862;2023-08-07T04:31:09;12.30;99.90
12043;DHT22;6082;49.306;12.862;2023-08-07T04:33:35;12.30;99.90
12043;DHT22;6082;49.306;12.862;2023-08-07T04:36:01;12.30;99.90
12043;DHT22;6082;49.306;12.862;2023-08-07T04:38:27;12.30;99.90
12043;DHT22;6082;49.306;12.862;2023-08-07T04:40:53;12.30;99.90
12043;DHT22;6082;49.306;12.862;2023-08-07T04:43:19;12.30;99.90
12043;DHT22;6082;49.306;12.862;2023-08-07T04:45:47;12.30;99.90
12043;DHT22;6082;49.306;12.862;2023-08-07T04:48:14;12.30;99.90
12043;DHT22;6082;49.306;12.862;2023-08-07T04:50:40;12.30;99.90
12043;DHT22;6082;49.306;12.862;2023-08-07T04:53:06;12.30;99.90
12043;DHT22;6082;49.306;12.862;2023-08-07T04:55:32;12.30;99.90
12043;DHT22;6082;49.306;12.862;2023-08-07T04:57:58;12.30;99.90
12043;DHT22;6082;49.306;12.862;2023-08-07T05:00:24;12.20;99.90
12043;DHT22;6082;49.306;12.862;2023-08-07T05:02:50;12.20;99.90
12043;DHT22;6082;49.306;12.862;2023-08-07T05:05:16;12.20;99.90
12043;DHT22;6082;49.306;12.862;2023-08-07T05:07:43;12.20;99.90
12043;DHT22;6082;49.306;12.862;2023-08-07T05:10:09;12.20;99.90
12043;DHT22;6082;49.306;12.862;2023-08-07T05:12:35;12.20;99.90
12043;DHT22;6082;49.306;12.862;2023-08-07T05:15:02;12.20;99.90
12043;DHT22;6082;49.306;12.862;2023-08-07T05:17:28;12.20;99.90
12043;DHT22;6082;49.306;12.862;2023-08-07T05:19:54;12.20;99.90
12043;DHT22;6082;49.306;12.862;2023-08-07T05:22:20;12.20;99.90
12043;DHT22;6082;49.306;12.862;2023-08-07T05:24:46;12.20;99.90
12043;DHT22;6082;49.306;12.862;2023-08-07T05:27:11;12.20;99.90
12043;DHT22;6082;49.306;12.862;2023-08-07T05:29:37;12.20;99.90
12043;DHT22;6082;49.306;12.862;2023-08-07T05:32:13;12.20;99.90
12043;DHT22;6082;49.306;12.862;2023-08-07T05:34:39;12.10;99.90
12043;DHT22;6082;49.306;12.862;2023-08-07T05:37:05;12.10;99.90
12043;DHT22;6082;49.306;12.862;2023-08-07T05:39:31;12.10;99.90
12043;DHT22;6082;49.306;12.862;2023-08-07T05:41:57;12.10;99.90
12043;DHT22;6082;49.306;12.862;2023-08-07T05:44:26;12.10;99.90
12043;DHT22;6082;49.306;12.862;2023-08-07T05:46:52;12.10;99.90
12043;DHT22;6082;49.306;12.862;2023-08-07T05:49:18;12.10;99.90
12043;DHT22;6082;49.306;12.862;2023-08-07T05:51:44;12.10;99.90
12043;DHT22;6082;49.306;12.862;2023-08-07T05:54:09;12.10;99.90
12043;DHT22;6082;49.306;12.862;2023-08-07T05:56:37;12.10;99.90
12043;DHT22;6082;49.306;12.862;2023-08-07T05:59:03;12.10;99.90
12043;DHT22;6082;49.306;12.862;2023-08-07T06:01:29;12.10;99.90
12043;DHT22;6082;49.306;12.862;2023-08-07T06:03:57;12.10;99.90
12043;DHT22;6082;49.306;12.862;2023-08-07T06:06:24;12.10;99.90
12043;DHT22;6082;49.306;12.862;2023-08-07T06:08:51;12.10;99.90
12043;DHT22;6082;49.306;12.862;2023-08-07T06:11:17;12.10;99.90
12043;DHT22;6082;49.306;12.862;2023-08-07T06:13:43;12.10;99.90
12043;DHT22;6082;49.306;12.862;2023-08-07T06:16:09;12.00;99.90
12043;DHT22;6082;49.306;12.862;2023-08-07T06:18:35;12.00;99.90
12043;DHT22;6082;49.306;12.862;2023-08-07T06:21:01;12.00;99.90
12043;DHT22;6082;49.306;12.862;2023-08-07T06:23:26;12.00;99.90
12043;DHT22;6082;49.306;12.862;2023-08-07T06:25:52;12.10;99.90
12043;DHT22;6082;49.306;12.862;2023-08-07T06:28:18;12.00;99.90
12043;DHT22;6082;49.306;12.862;2023-08-07T06:30:43;12.00;99.90
12043;DHT22;6082;49.306;12.862;2023-08-07T06:33:10;12.00;99.90
12043;DHT22;6082;49.306;12.862;2023-08-07T06:35:39;12.00;99.90
12043;DHT22;6082;49.306;12.862;2023-08-07T06:38:06;12.00;99.90
12043;DHT22;6082;49.306;12.862;2023-08-07T06:40:31;12.00;99.90
12043;DHT22;6082;49.306;12.862;2023-08-07T06:42:57;12.00;99.90
12043;DHT22;6082;49.306;12.862;2023-08-07T06:45:23;12.00;99.90
12043;DHT22;6082;49.306;12.862;2023-08-07T06:47:48;12.00;99.90
12043;DHT22;6082;49.306;12.862;2023-08-07T06:50:14;12.00;99.90
12043;DHT22;6082;49.306;12.862;2023-08-07T06:52:40;12.00;99.90
12043;DHT22;6082;49.306;12.862;2023-08-07T06:55:06;11.90;99.90
12043;DHT22;6082;49.306;12.862;2023-08-07T06:57:32;11.90;99.90
12043;DHT22;6082;49.306;12.862;2023-08-07T06:59:58;11.90;99.90
12043;DHT22;6082;49.306;12.862;2023-08-07T07:02:23;11.90;99.90
12043;DHT22;6082;49.306;12.862;2023-08-07T07:04:49;11.90;99.90
12043;DHT22;6082;49.306;12.862;2023-08-07T07:07:15;11.90;99.90
12043;DHT22;6082;49.306;12.862;2023-08-07T07:09:41;11.90;99.90
12043;DHT22;6082;49.306;12.862;2023-08-07T07:12:07;11.90;99.90
12043;DHT22;6082;49.306;12.862;2023-08-07T07:14:33;11.90;99.90
12043;DHT22;6082;49.306;12.862;2023-08-07T07:17:01;11.90;99.90
12043;DHT22;6082;49.306;12.862;2023-08-07T07:19:27;11.90;99.90
12043;DHT22;6082;49.306;12.862;2023-08-07T07:21:53;12.00;99.90
12043;DHT22;6082;49.306;12.862;2023-08-07T07:24:19;12.00;99.90
12043;DHT22;6082;49.306;12.862;2023-08-07T07:26:45;12.00;99.90
12043;DHT22;6082;49.306;12.862;2023-08-07T07:29:10;12.00;99.90
12043;DHT22;6082;49.306;12.862;2023-08-07T07:31:36;12.00;99.90
12043;DHT22;6082;49.306;12.862;2023-08-07T07:34:02;12.00;99.90
12043;DHT22;6082;49.306;12.862;2023-08-07T07:36:29;12.00;99.90
12043;DHT22;6082;49.306;12.862;2023-08-07T07:38:54;12.00;99.90
12043;DHT22;6082;49.306;12.862;2023-08-07T07:41:22;12.00;99.90
12043;DHT22;6082;49.306;12.862;2023-08-07T07:43:48;12.00;99.90
12043;DHT22;6082;49.306;12.862;2023-08-07T07:46:14;12.10;99.90
12043;DHT22;6082;49.306;12.862;2023-08-07T07:48:40;12.10;99.90
12043;DHT22;6082;49.306;12.862;2023-08-07T07:51:05;12.10;99.90
12043;DHT22;6082;49.306;12.862;2023-08-07T07:53:31;12.10;99.90
12043;DHT22;6082;49.306;12.862;2023-08-07T07:55:57;12.10;99.90
12043;DHT22;6082;49.306;12.862;2023-08-07T07:58:23;12.10;99.90
12043;DHT22;6082;49.306;12.862;2023-08-07T08:00:49;12.10;99.90
12043;DHT22;6082;49.306;12.862;2023-08-07T08:03:17;12.20;99.90
12043;DHT22;6082;49.306;12.862;2023-08-07T08:05:43;12.10;99.90
12043;DHT22;6082;49.306;12.862;2023-08-07T08:08:09;12.20;99.90
12043;DHT22;6082;49.306;12.862;2023-08-07T08:10:35;12.10;99.90
12043;DHT22;6082;49.306;12.862;2023-08-07T08:13:01;12.10;99.90
12043;DHT22;6082;49.306;12.862;2023-08-07T08:15:27;12.10;99.90
12043;DHT22;6082;49.306;12.862;2023-08-07T08:17:56;12.20;99.90
12043;DHT22;6082;49.306;12.862;2023-08-07T08:20:22;12.20;99.90
12043;DHT22;6082;49.306;12.862;2023-08-07T08:22:48;12.10;99.90
12043;DHT22;6082;49.306;12.862;2023-08-07T08:25:14;12.20;99.90
12043;DHT22;6082;49.306;12.862;2023-08-07T08:27:40;12.20;99.90
12043;DHT22;6082;49.306;12.862;2023-08-07T08:30:06;12.20;99.90
12043;DHT22;6082;49.306;12.862;2023-08-07T08:32:32;12.20;99.90
12043;DHT22;6082;49.306;12.862;2023-08-07T08:34:58;12.20;99.90
12043;DHT22;6082;49.306;12.862;2023-08-07T08:37:24;12.20;99.90
12043;DHT22;6082;49.306;12.862;2023-08-07T08:39:50;12.20;99.90
12043;DHT22;6082;49.306;12.862;2023-08-07T08:42:16;12.30;99.90
12043;DHT22;6082;49.306;12.862;2023-08-07T08:44:55;12.20;99.90
12043;DHT22;6082;49.306;12.862;2023-08-07T08:47:22;12.30;99.90
12043;DHT22;6082;49.306;12.862;2023-08-07T08:50:03;12.30;99.90
12043;DHT22;6082;49.306;12.862;2023-08-07T08:52:32;12.30;99.90
12043;DHT22;6082;49.306;12.862;2023-08-07T08:55:01;12.30;99.90
12043;DHT22;6082;49.306;12.862;2023-08-07T08:57:27;12.30;99.90
12043;DHT22;6082;49.306;12.862;2023-08-07T08:59:56;12.40;99.90
12043;DHT22;6082;49.306;12.862;2023-08-07T09:02:22;12.40;99.90
12043;DHT22;6082;49.306;12.862;2023-08-07T09:04:48;12.40;99.90
12043;DHT22;6082;49.306;12.862;2023-08-07T09:07:15;12.40;99.90
12043;DHT22;6082;49.306;12.862;2023-08-07T09:09:44;12.30;99.90
12043;DHT22;6082;49.306;12.862;2023-08-07T09:12:16;12.40;99.90
12043;DHT22;6082;49.306;12.862;2023-08-07T09:14:45;12.40;99.90
12043;DHT22;6082;49.306;12.862;2023-08-07T09:17:13;12.40;99.90
12043;DHT22;6082;49.306;12.862;2023-08-07T09:19:39;12.40;99.90
12043;DHT22;6082;49.306;12.862;2023-08-07T09:22:05;12.40;99.90
12043;DHT22;6082;49.306;12.862;2023-08-07T09:24:31;12.40;99.90
12043;DHT22;6082;49.306;12.862;2023-08-07T09:26:58;12.40;99.90
12043;DHT22;6082;49.306;12.862;2023-08-07T09:29:24;12.40;99.90
12043;DHT22;6082;49.306;12.862;2023-08-07T09:31:50;12.40;99.90
12043;DHT22;6082;49.306;12.862;2023-08-07T09:34:20;12.40;99.90
12043;DHT22;6082;49.306;12.862;2023-08-07T09:36:46;12.40;99.90
12043;DHT22;6082;49.306;12.862;2023-08-07T09:39:11;12.40;99.90
12043;DHT22;6082;49.306;12.862;2023-08-07T09:41:37;12.40;99.90
12043;DHT22;6082;49.306;12.862;2023-08-07T09:44:07;12.40;99.90
12043;DHT22;6082;49.306;12.862;2023-08-07T09:46:43;12.40;99.90
12043;DHT22;6082;49.306;12.862;2023-08-07T09:49:09;12.40;99.90
12043;DHT22;6082;49.306;12.862;2023-08-07T09:51:46;12.40;99.90
12043;DHT22;6082;49.306;12.862;2023-08-07T09:54:12;12.40;99.90
12043;DHT22;6082;49.306;12.862;2023-08-07T09:56:41;12.40;99.90
12043;DHT22;6082;49.306;12.862;2023-08-07T09:59:07;12.50;99.90
12043;DHT22;6082;49.306;12.862;2023-08-07T10:01:36;12.50;99.90
12043;DHT22;6082;49.306;12.862;2023-08-07T10:04:05;12.50;99.90
12043;DHT22;6082;49.306;12.862;2023-08-07T10:06:31;12.50;99.90
12043;DHT22;6082;49.306;12.862;2023-08-07T10:08:57;12.50;99.90
12043;DHT22;6082;49.306;12.862;2023-08-07T10:11:26;12.50;99.90
12043;DHT22;6082;49.306;12.862;2023-08-07T10:13:53;12.50;99.90
12043;DHT22;6082;49.306;12.862;2023-08-07T10:16:19;12.50;99.90
12043;DHT22;6082;49.306;12.862;2023-08-07T10:18:45;12.50;99.90
12043;DHT22;6082;49.306;12.862;2023-08-07T10:21:11;12.50;99.90
12043;DHT22;6082;49.306;12.862;2023-08-07T10:23:38;12.50;99.90
12043;DHT22;6082;49.306;12.862;2023-08-07T10:26:06;12.40;99.90
12043;DHT22;6082;49.306;12.862;2023-08-07T10:28:36;12.40;99.90
12043;DHT22;6082;49.306;12.862;2023-08-07T10:31:06;12.50;99.90
12043;DHT22;6082;49.306;12.862;2023-08-07T10:33:33;12.50;99.90
12043;DHT22;6082;49.306;12.862;2023-08-07T10:35:59;12.50;99.90
12043;DHT22;6082;49.306;12.862;2023-08-07T10:38:25;12.60;99.90
12043;DHT22;6082;49.306;12.862;2023-08-07T10:43:43;12.60;99.90
12043;DHT22;6082;49.306;12.862;2023-08-07T10:46:19;12.60;99.90
12043;DHT22;6082;49.306;12.862;2023-08-07T10:48:47;12.60;99.90
12043;DHT22;6082;49.306;12.862;2023-08-07T10:51:14;12.60;99.90
12043;DHT22;6082;49.306;12.862;2023-08-07T10:53:46;12.60;99.90
12043;DHT22;6082;49.306;12.862;2023-08-07T10:58:48;12.60;99.90
12043;DHT22;6082;49.306;12.862;2023-08-07T11:03:57;12.50;99.90
12043;DHT22;6082;49.306;12.862;2023-08-07T11:06:31;12.50;99.90
12043;DHT22;6082;49.306;12.862;2023-08-07T11:08:58;12.50;99.90
12043;DHT22;6082;49.306;12.862;2023-08-07T11:11:24;12.60;99.90
12043;DHT22;6082;49.306;12.862;2023-08-07T11:13:50;12.50;99.90
12043;DHT22;6082;49.306;12.862;2023-08-07T11:16:17;12.50;99.90
12043;DHT22;6082;49.306;12.862;2023-08-07T11:18:43;12.50;99.90
12043;DHT22;6082;49.306;12.862;2023-08-07T11:21:09;12.50;99.90
12043;DHT22;6082;49.306;12.862;2023-08-07T11:23:37;12.50;99.90
12043;DHT22;6082;49.306;12.862;2023-08-07T11:26:02;12.50;99.90
12043;DHT22;6082;49.306;12.862;2023-08-07T11:28:29;12.50;99.90
12043;DHT22;6082;49.306;12.862;2023-08-07T11:30:56;12.50;99.90
12043;DHT22;6082;49.306;12.862;2023-08-07T11:33:24;12.50;99.90
12043;DHT22;6082;49.306;12.862;2023-08-07T11:35:51;12.60;99.90
12043;DHT22;6082;49.306;12.862;2023-08-07T11:41:02;12.60;99.90
12043;DHT22;6082;49.306;12.862;2023-08-07T11:43:33;12.60;99.90
12043;DHT22;6082;49.306;12.862;2023-08-07T11:46:07;12.70;99.90
12043;DHT22;6082;49.306;12.862;2023-08-07T11:48:35;12.70;99.90
12043;DHT22;6082;49.306;12.862;2023-08-07T11:51:01;12.60;99.90
12043;DHT22;6082;49.306;12.862;2023-08-07T11:53:33;12.60;99.90
12043;DHT22;6082;49.306;12.862;2023-08-07T11:56:05;12.60;99.90
12043;DHT22;6082;49.306;12.862;2023-08-07T11:58:39;12.60;99.90
12043;DHT22;6082;49.306;12.862;2023-08-07T12:01:12;12.60;99.90
12043;DHT22;6082;49.306;12.862;2023-08-07T12:03:42;12.70;99.90
12043;DHT22;6082;49.306;12.862;2023-08-07T12:06:09;12.70;99.90
12043;DHT22;6082;49.306;12.862;2023-08-07T12:08:40;12.70;99.90
12043;DHT22;6082;49.306;12.862;2023-08-07T12:11:08;12.70;99.90
12043;DHT22;6082;49.306;12.862;2023-08-07T12:13:38;12.70;99.90
12043;DHT22;6082;49.306;12.862;2023-08-07T12:16:04;12.80;99.90
12043;DHT22;6082;49.306;12.862;2023-08-07T12:18:30;12.80;99.90
12043;DHT22;6082;49.306;12.862;2023-08-07T12:20:58;12.80;99.90
12043;DHT22;6082;49.306;12.862;2023-08-07T12:23:24;12.80;99.90
12043;DHT22;6082;49.306;12.862;2023-08-07T12:25:50;12.80;99.90
12043;DHT22;6082;49.306;12.862;2023-08-07T12:28:18;12.80;99.90
12043;DHT22;6082;49.306;12.862;2023-08-07T12:30:47;12.90;99.90
12043;DHT22;6082;49.306;12.862;2023-08-07T12:33:13;12.90;99.90
12043;DHT22;6082;49.306;12.862;2023-08-07T12:35:40;12.90;99.90
12043;DHT22;6082;49.306;12.862;2023-08-07T12:38:07;12.90;99.90
12043;DHT22;6082;49.306;12.862;2023-08-07T12:40:33;12.90;99.90
12043;DHT22;6082;49.306;12.862;2023-08-07T12:43:02;12.90;99.90
12043;DHT22;6082;49.306;12.862;2023-08-07T12:45:28;13.00;99.90
12043;DHT22;6082;49.306;12.862;2023-08-07T12:47:54;12.90;99.90
12043;DHT22;6082;49.306;12.862;2023-08-07T12:50:19;13.00;99.90
12043;DHT22;6082;49.306;12.862;2023-08-07T12:52:48;12.90;99.90
12043;DHT22;6082;49.306;12.862;2023-08-07T12:55:14;12.90;99.90
12043;DHT22;6082;49.306;12.862;2023-08-07T12:57:41;13.00;99.90
12043;DHT22;6082;49.306;12.862;2023-08-07T13:00:11;12.90;99.90
12043;DHT22;6082;49.306;12.862;2023-08-07T13:02:53;12.90;99.90
12043;DHT22;6082;49.306;12.862;2023-08-07T13:05:20;12.90;99.90
12043;DHT22;6082;49.306;12.862;2023-08-07T13:07:47;12.90;99.90
12043;DHT22;6082;49.306;12.862;2023-08-07T13:10:15;12.90;99.90
12043;DHT22;6082;49.306;12.862;2023-08-07T13:12:42;12.80;99.90
12043;DHT22;6082;49.306;12.862;2023-08-07T13:15:10;12.80;99.90
12043;DHT22;6082;49.306;12.862;2023-08-07T13:17:38;12.80;99.90
12043;DHT22;6082;49.306;12.862;2023-08-07T13:20:05;12.80;99.90
12043;DHT22;6082;49.306;12.862;2023-08-07T13:22:38;12.80;99.90
12043;DHT22;6082;49.306;12.862;2023-08-07T13:25:04;12.80;99.90
12043;DHT22;6082;49.306;12.862;2023-08-07T13:27:32;12.80;99.90
12043;DHT22;6082;49.306;12.862;2023-08-07T13:29:58;12.80;99.90
12043;DHT22;6082;49.306;12.862;2023-08-07T13:32:25;12.80;99.90
12043;DHT22;6082;49.306;12.862;2023-08-07T13:34:51;12.80;99.90
12043;DHT22;6082;49.306;12.862;2023-08-07T13:37:17;12.80;99.90
12043;DHT22;6082;49.306;12.862;2023-08-07T13:39:43;12.80;99.90
12043;DHT22;6082;49.306;12.862;2023-08-07T13:42:08;12.70;99.90
12043;DHT22;6082;49.306;12.862;2023-08-07T13:44:39;12.70;99.90
12043;DHT22;6082;49.306;12.862;2023-08-07T13:47:05;12.70;99.90
12043;DHT22;6082;49.306;12.862;2023-08-07T13:49:32;12.80;99.90
12043;DHT22;6082;49.306;12.862;2023-08-07T13:51:58;12.80;99.90
12043;DHT22;6082;49.306;12.862;2023-08-07T13:54:23;12.70;99.90
12043;DHT22;6082;49.306;12.862;2023-08-07T13:56:49;12.80;99.90
12043;DHT22;6082;49.306;12.862;2023-08-07T13:59:16;12.80;99.90
12043;DHT22;6082;49.306;12.862;2023-08-07T14:01:42;12.80;99.90
12043;DHT22;6082;49.306;12.862;2023-08-07T14:04:07;12.80;99.90
12043;DHT22;6082;49.306;12.862;2023-08-07T14:06:33;12.80;99.90
12043;DHT22;6082;49.306;12.862;2023-08-07T14:08:59;12.80;99.90
12043;DHT22;6082;49.306;12.862;2023-08-07T14:11:24;12.80;99.90
12043;DHT22;6082;49.306;12.862;2023-08-07T14:13:58;12.80;99.90
12043;DHT22;6082;49.306;12.862;2023-08-07T14:16:25;12.80;99.90
12043;DHT22;6082;49.306;12.862;2023-08-07T14:18:51;12.70;99.90
12043;DHT22;6082;49.306;12.862;2023-08-07T14:21:17;12.80;99.90
12043;DHT22;6082;49.306;12.862;2023-08-07T14:23:42;12.80;99.90
12043;DHT22;6082;49.306;12.862;2023-08-07T14:26:11;12.70;99.90
12043;DHT22;6082;49.306;12.862;2023-08-07T14:28:37;12.80;99.90
12043;DHT22;6082;49.306;12.862;2023-08-07T14:31:06;12.80;99.90
12043;DHT22;6082;49.306;12.862;2023-08-07T14:33:32;12.80;99.90
12043;DHT22;6082;49.306;12.862;2023-08-07T14:35:58;12.90;99.90
12043;DHT22;6082;49.306;12.862;2023-08-07T14:38:25;12.90;99.90
12043;DHT22;6082;49.306;12.862;2023-08-07T14:40:51;12.90;99.90
12043;DHT22;6082;49.306;12.862;2023-08-07T14:43:16;12.90;99.90
12043;DHT22;6082;49.306;12.862;2023-08-07T14:45:42;12.90;99.90
12043;DHT22;6082;49.306;12.862;2023-08-07T14:48:08;12.90;99.90
12043;DHT22;6082;49.306;12.862;2023-08-07T14:50:34;12.90;99.90
12043;DHT22;6082;49.306;12.862;2023-08-07T14:52:59;12.90;99.90
12043;DHT22;6082;49.306;12.862;2023-08-07T14:55:25;13.00;99.90
12043;DHT22;6082;49.306;12.862;2023-08-07T14:57:51;13.00;99.90
12043;DHT22;6082;49.306;12.862;2023-08-07T15:00:17;13.00;99.90
12043;DHT22;6082;49.306;12.862;2023-08-07T15:02:43;13.00;99.90
12043;DHT22;6082;49.306;12.862;2023-08-07T15:05:09;13.00;99.90
12043;DHT22;6082;49.306;12.862;2023-08-07T15:07:35;13.00;99.90
12043;DHT22;6082;49.306;12.862;2023-08-07T15:10:00;13.00;99.90
12043;DHT22;6082;49.306;12.862;2023-08-07T15:12:26;13.00;99.90
12043;DHT22;6082;49.306;12.862;2023-08-07T15:14:52;13.00;99.90
12043;DHT22;6082;49.306;12.862;2023-08-07T15:17:17;13.00;99.90
12043;DHT22;6082;49.306;12.862;2023-08-07T15:19:43;13.00;99.90
12043;DHT22;6082;49.306;12.862;2023-08-07T15:22:09;13.00;99.90
12043;DHT22;6082;49.306;12.862;2023-08-07T15:24:34;13.00;99.90
12043;DHT22;6082;49.306;12.862;2023-08-07T15:27:00;12.90;99.90
12043;DHT22;6082;49.306;12.862;2023-08-07T15:29:26;12.90;99.90
12043;DHT22;6082;49.306;12.862;2023-08-07T15:31:52;12.90;99.90
12043;DHT22;6082;49.306;12.862;2023-08-07T15:34:17;12.90;99.90
12043;DHT22;6082;49.306;12.862;2023-08-07T15:36:43;12.90;99.90
12043;DHT22;6082;49.306;12.862;2023-08-07T15:39:09;12.90;99.90
12043;DHT22;6082;49.306;12.862;2023-08-07T15:41:35;12.90;99.90
12043;DHT22;6082;49.306;12.862;2023-08-07T15:44:02;12.90;99.90